createdAt,value
2018-12-02T00:00:34.503Z,8.74
2018-12-02T00:04:42.973Z,8.79
2018-12-02T00:08:51.451Z,8.75
2018-12-02T00:12:59.157Z,8.76
2018-12-02T00:17:12.638Z,8.75
2018-12-02T00:21:20.251Z,8.77
2018-12-02T00:25:27.815Z,8.81
2018-12-02T00:29:35.196Z,8.78
2018-12-02T00:33:42.601Z,8.83
2018-12-02T00:37:54.560Z,8.89
2018-12-02T00:42:02.245Z,8.93
2018-12-02T00:46:10.417Z,8.91
2018-12-02T00:50:21.486Z,8.92
2018-12-02T00:54:29.347Z,8.94
2018-12-02T00:58:37.068Z,8.96
2018-12-02T01:02:48.726Z,8.99
2018-12-02T01:06:56.358Z,8.96
2018-12-02T01:11:03.909Z,8.97
2018-12-02T01:15:18.697Z,8.97
2018-12-02T01:19:27.237Z,8.96
2018-12-02T01:23:35.104Z,9.00
2018-12-02T01:27:43.033Z,8.97
2018-12-02T01:31:50.567Z,8.96
2018-12-02T01:35:58.103Z,9.01
2018-12-02T01:40:07.062Z,8.93
2018-12-02T01:44:14.775Z,8.96
2018-12-02T01:48:22.197Z,8.93
2018-12-02T01:52:30.823Z,8.89
2018-12-02T01:56:38.506Z,8.79
2018-12-02T02:00:46.447Z,8.68
2018-12-02T02:04:54.304Z,8.56
2018-12-02T02:09:02.042Z,8.41
2018-12-02T02:13:11.515Z,8.34
2018-12-02T02:17:21.035Z,8.23
2018-12-02T02:21:28.685Z,8.15
2018-12-02T02:25:36.369Z,8.15
2018-12-02T02:29:44.230Z,8.13
2018-12-02T02:33:52.119Z,8.10
2018-12-02T02:38:00.874Z,8.12
2018-12-02T02:42:09.764Z,8.09
2018-12-02T02:46:17.348Z,8.19
2018-12-02T02:50:28.841Z,8.20
2018-12-02T02:54:36.290Z,8.18
2018-12-02T02:58:43.796Z,8.26
2018-12-02T03:02:51.478Z,8.20
2018-12-02T03:06:59.257Z,8.27
2018-12-02T03:11:06.997Z,8.28
2018-12-02T03:15:21.950Z,8.38
2018-12-02T03:19:29.968Z,8.40
2018-12-02T03:23:37.600Z,8.50
2018-12-02T03:27:45.179Z,8.53
2018-12-02T03:31:52.882Z,8.63
2018-12-02T03:36:00.511Z,8.67
2018-12-02T03:40:37.232Z,8.71
2018-12-02T03:44:44.654Z,8.73
2018-12-02T03:48:52.302Z,8.77
2018-12-02T03:52:59.837Z,8.85
2018-12-02T03:57:07.496Z,8.83
2018-12-02T04:01:15.196Z,8.83
2018-12-02T04:05:24.498Z,8.84
2018-12-02T04:09:32.800Z,8.82
2018-12-02T04:13:40.260Z,8.71
2018-12-02T04:17:48.411Z,8.63
2018-12-02T04:21:55.887Z,8.49
2018-12-02T04:26:03.358Z,8.48
2018-12-02T04:30:19.053Z,8.40
2018-12-02T04:34:28.839Z,8.37
2018-12-02T04:38:36.461Z,8.34
2018-12-02T04:42:44.048Z,8.24
2018-12-02T04:46:51.679Z,8.23
2018-12-02T04:50:59.434Z,8.28
2018-12-02T04:55:07.754Z,8.16
2018-12-02T04:59:15.247Z,8.20
2018-12-02T05:03:22.633Z,8.13
2018-12-02T05:07:30.142Z,8.09
2018-12-02T05:11:37.671Z,8.15
2018-12-02T05:15:45.098Z,8.12
2018-12-02T05:20:22.710Z,8.16
2018-12-02T05:24:30.519Z,8.15
2018-12-02T05:28:38.176Z,8.12
2018-12-02T05:32:51.723Z,8.07
2018-12-02T05:36:59.071Z,8.05
2018-12-02T05:41:06.576Z,8.07
2018-12-02T05:45:18.013Z,8.08
2018-12-02T05:49:25.487Z,8.03
2018-12-02T05:53:32.906Z,8.05
2018-12-02T05:57:40.369Z,8.05
2018-12-02T06:01:47.709Z,8.04
2018-12-02T06:05:55.270Z,8.02
2018-12-02T06:10:02.986Z,8.07
2018-12-02T06:14:10.812Z,8.04
2018-12-02T06:18:18.679Z,8.08
2018-12-02T06:22:27.271Z,8.08
2018-12-02T06:26:35.448Z,8.08
2018-12-02T06:30:44.049Z,8.08
2018-12-02T06:34:51.729Z,8.10
2018-12-02T06:39:02.092Z,8.11
2018-12-02T06:43:10.621Z,8.05
2018-12-02T06:47:18.437Z,8.10
2018-12-02T06:51:26.273Z,8.07
2018-12-02T06:55:39.861Z,8.13
2018-12-02T07:00:16.509Z,8.09
2018-12-02T07:04:32.809Z,8.14
2018-12-02T07:08:41.359Z,8.10
2018-12-02T07:12:49.376Z,8.08
2018-12-02T07:16:56.958Z,8.13
2018-12-02T07:21:04.899Z,8.14
2018-12-02T07:25:12.596Z,8.13
2018-12-02T07:29:20.686Z,8.13
2018-12-02T07:33:29.536Z,8.16
2018-12-02T07:37:58.316Z,8.16
2018-12-02T07:42:13.786Z,8.14
2018-12-02T07:46:21.653Z,8.15
2018-12-02T07:50:29.791Z,8.09
2018-12-02T07:54:37.921Z,8.13
2018-12-02T07:58:45.394Z,8.14
2018-12-02T08:02:55.713Z,8.12
2018-12-02T08:07:03.830Z,8.11
2018-12-02T08:11:11.981Z,8.15
2018-12-02T08:15:23.980Z,8.16
2018-12-02T08:19:31.861Z,8.10
2018-12-02T08:23:41.632Z,8.13
2018-12-02T08:27:49.908Z,8.19
2018-12-02T08:32:00.453Z,8.15
2018-12-02T08:36:08.860Z,8.20
2018-12-02T08:40:17.183Z,8.16
2018-12-02T08:44:24.550Z,8.23
2018-12-02T08:48:32.065Z,8.22
2018-12-02T08:52:39.672Z,8.27
2018-12-02T08:56:47.506Z,8.33
2018-12-02T09:00:57.091Z,8.37
2018-12-02T09:05:05.153Z,8.45
2018-12-02T09:09:13.534Z,8.52
2018-12-02T09:13:23.260Z,8.62
2018-12-02T09:17:31.302Z,8.60
2018-12-02T09:21:39.070Z,8.60
2018-12-02T09:25:46.923Z,8.61
2018-12-02T09:29:54.626Z,8.63
2018-12-02T09:34:02.724Z,8.61
2018-12-02T09:38:10.288Z,8.69
2018-12-02T09:42:17.981Z,8.70
2018-12-02T09:46:27.214Z,8.66
2018-12-02T09:50:38.021Z,8.67
2018-12-02T09:54:44.054Z,8.76
2018-12-02T09:58:52.563Z,8.69
2018-12-02T10:03:00.492Z,8.69
2018-12-02T10:07:08.468Z,8.76
2018-12-02T10:11:16.818Z,8.77
2018-12-02T10:15:32.937Z,8.80
2018-12-02T10:19:43.975Z,8.82
2018-12-02T10:23:55.977Z,8.88
2018-12-02T10:28:04.232Z,8.91
2018-12-02T10:32:12.477Z,8.94
2018-12-02T10:36:20.197Z,8.93
2018-12-02T10:40:37.402Z,8.95
2018-12-02T10:44:47.456Z,8.92
2018-12-02T10:48:55.452Z,8.90
2018-12-02T10:53:31.522Z,8.97
2018-12-02T10:57:42.341Z,9.02
2018-12-02T11:01:56.548Z,9.10
2018-12-02T11:06:09.255Z,9.21
2018-12-02T11:10:17.646Z,9.28
2018-12-02T11:14:29.542Z,9.29
2018-12-02T11:18:41.168Z,9.37
2018-12-02T11:22:59.338Z,9.38
2018-12-02T11:27:08.016Z,9.45
2018-12-02T11:31:19.572Z,9.36
2018-12-02T11:35:31.387Z,9.47
2018-12-02T11:39:45.926Z,9.51
2018-12-02T11:44:04.864Z,9.60
2018-12-02T11:48:12.642Z,9.60
2018-12-02T11:52:20.724Z,9.64
2018-12-02T11:56:28.833Z,9.72
2018-12-02T12:00:41.669Z,9.80
2018-12-02T12:04:49.580Z,9.87
2018-12-02T12:08:57.364Z,9.93
2018-12-02T12:13:05.522Z,9.96
2018-12-02T12:17:14.472Z,10.04
2018-12-02T12:21:22.524Z,9.97
2018-12-02T12:25:38.307Z,10.07
2018-12-02T12:29:48.867Z,10.14
2018-12-02T12:34:02.513Z,10.21
2018-12-02T12:38:15.535Z,10.32
2018-12-02T12:42:23.902Z,10.37
2018-12-02T12:46:37.723Z,10.47
2018-12-02T12:50:45.584Z,10.59
2018-12-02T12:54:58.019Z,10.68
2018-12-02T12:59:10.234Z,10.78
2018-12-02T13:03:21.568Z,10.77
2018-12-02T13:07:35.502Z,10.85
2018-12-02T13:11:45.145Z,10.92
2018-12-02T13:15:52.937Z,10.89
2018-12-02T13:20:01.772Z,11.00
2018-12-02T13:24:16.063Z,11.08
2018-12-02T13:28:24.756Z,11.10
2018-12-02T13:32:35.329Z,11.09
2018-12-02T13:36:46.145Z,11.17
2018-12-02T13:40:57.099Z,11.24
2018-12-02T13:45:09.222Z,11.24
2018-12-02T13:49:18.749Z,11.32
2018-12-02T13:53:52.109Z,11.31
2018-12-02T13:58:00.686Z,11.38
2018-12-02T14:02:09.212Z,11.39
2018-12-02T14:06:19.933Z,11.46
2018-12-02T14:10:35.912Z,11.53
2018-12-02T14:14:46.561Z,11.60
2018-12-02T14:18:56.094Z,11.69
2018-12-02T14:23:07.773Z,11.74
2018-12-02T14:27:19.728Z,11.89
2018-12-02T14:31:38.442Z,11.90
2018-12-02T14:35:47.429Z,12.00
2018-12-02T14:39:58.442Z,12.05
2018-12-02T14:44:12.594Z,12.10
2018-12-02T14:48:20.809Z,12.07
2018-12-02T14:52:31.358Z,12.12
2018-12-02T14:56:39.249Z,12.10
2018-12-02T15:00:47.114Z,12.18
2018-12-02T15:05:03.953Z,12.19
2018-12-02T15:09:13.315Z,12.21
2018-12-02T15:13:21.207Z,12.18
2018-12-02T15:17:29.403Z,12.18
2018-12-02T15:21:37.847Z,12.20
2018-12-02T15:25:46.055Z,12.22
2018-12-02T15:29:53.740Z,12.23
2018-12-02T15:34:06.155Z,12.22
2018-12-02T15:38:19.172Z,12.20
2018-12-02T15:42:29.838Z,12.20
2018-12-02T15:46:37.814Z,12.16
2018-12-02T15:50:50.580Z,12.18
2018-12-02T15:54:57.933Z,12.21
2018-12-02T15:59:12.735Z,12.22
2018-12-02T16:03:26.648Z,12.18
2018-12-02T16:07:35.007Z,12.16
2018-12-02T16:11:43.882Z,12.19
2018-12-02T16:16:00.537Z,12.17
2018-12-02T16:20:32.653Z,12.16
2018-12-02T16:24:40.916Z,12.12
2018-12-02T16:28:48.768Z,12.11
2018-12-02T16:32:57.488Z,12.13
2018-12-02T16:37:06.331Z,12.08
2018-12-02T16:41:14.271Z,12.12
2018-12-02T16:45:23.053Z,12.08
2018-12-02T16:49:30.591Z,12.06
2018-12-02T16:53:38.706Z,12.08
2018-12-02T16:58:09.745Z,12.09
2018-12-02T17:02:18.303Z,12.11
2018-12-02T17:06:27.861Z,12.09
2018-12-02T17:10:50.451Z,12.09
2018-12-02T17:14:53.084Z,12.11
2018-12-02T17:19:04.785Z,12.17
2018-12-02T17:23:12.535Z,12.12
2018-12-02T17:27:22.876Z,12.11
2018-12-02T17:32:08.461Z,12.15
2018-12-02T17:36:19.550Z,12.10
2018-12-02T17:40:33.371Z,12.14
2018-12-02T17:44:45.057Z,12.12
2018-12-02T17:48:53.199Z,12.18
2018-12-02T17:53:04.598Z,12.13
2018-12-02T17:57:13.143Z,12.18
2018-12-02T18:01:21.192Z,12.13
2018-12-02T18:05:37.800Z,12.03
2018-12-02T18:09:47.672Z,12.02
2018-12-02T18:13:55.459Z,12.04
2018-12-02T18:18:03.772Z,12.01
2018-12-02T18:22:12.252Z,11.99
2018-12-02T18:26:20.793Z,11.95
2018-12-02T18:30:33.564Z,11.91
2018-12-02T18:34:41.494Z,11.94
2018-12-02T18:38:50.766Z,11.96
2018-12-02T18:42:58.392Z,11.94
2018-12-02T18:47:06.014Z,11.88
2018-12-02T18:51:14.465Z,11.95
2018-12-02T18:55:22.178Z,11.90
2018-12-02T18:59:29.879Z,11.94
2018-12-02T19:03:37.688Z,11.94
2018-12-02T19:07:46.217Z,11.96
2018-12-02T19:11:54.526Z,12.09
2018-12-02T19:16:02.188Z,11.97
2018-12-02T19:20:20.444Z,12.04
2018-12-02T19:24:29.588Z,12.04
2018-12-02T19:28:37.342Z,12.03
2018-12-02T19:32:45.573Z,12.04
2018-12-02T19:37:04.427Z,12.07
2018-12-02T19:41:12.674Z,12.05
2018-12-02T19:45:22.634Z,12.04
2018-12-02T19:49:30.748Z,12.02
2018-12-02T19:53:41.542Z,12.04
2018-12-02T19:57:51.279Z,12.08
2018-12-02T20:02:02.766Z,12.10
2018-12-02T20:06:13.507Z,12.10
2018-12-02T20:10:36.127Z,12.13
2018-12-02T20:14:49.549Z,12.12
2018-12-02T20:19:20.572Z,12.11
2018-12-02T20:23:15.017Z,12.11
2018-12-02T20:27:26.124Z,12.11
2018-12-02T20:31:36.677Z,12.09
2018-12-02T20:35:55.572Z,12.10
2018-12-02T20:40:31.009Z,12.01
2018-12-02T20:44:53.561Z,12.04
2018-12-02T20:49:04.285Z,12.00
2018-12-02T20:53:25.202Z,12.00
2018-12-02T20:57:50.198Z,11.97
2018-12-02T21:02:04.560Z,11.96
2018-12-02T21:06:33.198Z,12.04
2018-12-02T21:11:03.740Z,12.03
2018-12-02T21:15:17.285Z,11.99
2018-12-02T21:19:25.249Z,12.01
2018-12-02T21:23:55.637Z,12.09
2018-12-02T21:28:07.560Z,12.04
2018-12-02T21:32:16.183Z,11.99
2018-12-02T21:36:25.834Z,12.02
2018-12-02T21:40:34.126Z,12.07
2018-12-02T21:44:41.896Z,12.09
2018-12-02T21:48:51.554Z,12.07
2018-12-02T21:53:01.235Z,12.09
2018-12-02T21:57:10.580Z,12.07
2018-12-02T22:01:19.331Z,12.11
2018-12-02T22:05:28.030Z,12.14
2018-12-02T22:09:35.909Z,12.12
2018-12-02T22:13:43.757Z,12.10
2018-12-02T22:18:01.716Z,12.09
2018-12-02T22:22:31.843Z,12.07
2018-12-02T22:26:41.108Z,12.06
2018-12-02T22:30:53.909Z,12.11
2018-12-02T22:35:03.699Z,12.04
2018-12-02T22:39:12.191Z,12.11
2018-12-02T22:43:31.542Z,12.10
2018-12-02T22:47:39.575Z,12.12
2018-12-02T22:51:47.451Z,12.12
2018-12-02T22:55:55.211Z,12.09
2018-12-02T23:00:03.155Z,12.11
2018-12-02T23:04:11.846Z,12.12
2018-12-02T23:08:21.040Z,12.10
2018-12-02T23:12:28.195Z,12.11
2018-12-02T23:16:35.776Z,12.08
2018-12-02T23:20:43.312Z,12.05
2018-12-02T23:24:53.912Z,12.10
2018-12-02T23:29:01.659Z,12.12
2018-12-02T23:33:10.759Z,12.08
2018-12-02T23:37:20.632Z,12.10
2018-12-02T23:41:26.829Z,12.12
2018-12-02T23:45:34.273Z,12.09
2018-12-02T23:49:43.897Z,12.12
2018-12-02T23:53:51.952Z,12.09
2018-12-02T23:57:59.670Z,12.06
